Tangipahoa, Louisiana
Current Conditions -  °F | °C
As of 9:53 PM on Friday 24 Oct 2014 (Local Time) from KMCB Reporting Station
Clear Clear  
Wind Chill: 60°   Ceiling: Unl
Heat Index: 60°   Visibility: 10mi
Dew Point: 47°   Wind: 8mph
Humidity: 62%   Direction: 350°N
Pressure: 30.12"   Gusts: NA
Location:  30.88°N, 90.51°W
Report Text: KMCB 250253Z AUTO 35007KT 10SM CLR 16/08 A3012 RMK AO2 SLP195 T01560083 52012
Loading
Personal Weather Stations






























Interactive Weather Map
Tropical Storm Tracking
New forecast layout! Learn more

10-Day Weather Forecast

Advertisements
Track Severe Weather on mobile